Time;durP1;ratioP1;P1;durP2;ratioP2;P2;SDS_P1;SDS_P2;PMS_P1;PMS_P2;Temp;Humidity;BMP_temperature;BMP_pressure;BME280_temperature;BME280_humidity;BME280_pressure;Samples;Min_cycle;Max_cycle;Signal;HPM_P1;HPM_P2
2021/09/07 00:00:16;;;;;;;11.15;5.70;;;17.30;95.80;;;;;;4991834;28;20125;-70
2021/09/07 00:02:42;;;;;;;15.80;6.80;;;17.20;95.90;;;;;;4993032;28;20031;-69
2021/09/07 00:05:09;;;;;;;10.25;6.18;;;17.10;96.00;;;;;;4992612;28;20424;-69
2021/09/07 00:07:35;;;;;;;11.18;6.07;;;17.10;96.10;;;;;;4992423;28;20497;-68
2021/09/07 00:10:01;;;;;;;9.30;5.45;;;17.00;96.20;;;;;;4992534;28;20046;-69
2021/09/07 00:12:26;;;;;;;15.85;6.50;;;17.00;96.30;;;;;;4992162;28;20487;-69
2021/09/07 00:14:52;;;;;;;11.88;6.28;;;17.00;96.30;;;;;;4991805;28;20026;-69
2021/09/07 00:17:18;;;;;;;11.52;6.35;;;17.00;96.40;;;;;;4992000;28;20090;-69
2021/09/07 00:19:43;;;;;;;13.95;6.10;;;16.90;96.50;;;;;;4991918;28;20023;-69
2021/09/07 00:22:09;;;;;;;12.10;6.25;;;16.90;96.60;;;;;;4991969;28;20480;-70
2021/09/07 00:24:34;;;;;;;12.43;5.93;;;16.80;96.60;;;;;;4992379;28;20030;-70
2021/09/07 00:27:00;;;;;;;12.00;6.20;;;16.80;96.60;;;;;;4992690;28;20387;-70
2021/09/07 00:29:27;;;;;;;15.25;6.15;;;16.80;96.70;;;;;;4992328;28;20030;-70
2021/09/07 00:31:53;;;;;;;14.02;6.55;;;16.80;96.80;;;;;;4992147;28;20054;-70
2021/09/07 00:34:18;;;;;;;12.77;7.00;;;16.70;96.80;;;;;;4991920;28;20069;-70
2021/09/07 00:36:44;;;;;;;11.57;6.05;;;16.70;96.90;;;;;;4992263;28;20030;-70
2021/09/07 00:39:11;;;;;;;12.38;6.35;;;16.70;97.00;;;;;;4992484;28;20533;-70
2021/09/07 00:41:41;;;;;;;11.18;6.20;;;16.70;97.00;;;;;;4992086;28;20105;-70
2021/09/07 00:44:20;;;;;;;17.63;6.80;;;16.70;97.00;;;;;;4991873;28;20068;-70
2021/09/07 00:46:54;;;;;;;11.00;6.43;;;16.70;97.00;;;;;;4991827;28;20038;-70
2021/09/07 00:49:20;;;;;;;12.25;6.55;;;16.70;97.00;;;;;;4991747;28;20117;-70
2021/09/07 00:51:47;;;;;;;11.23;6.68;;;16.60;97.10;;;;;;4991816;28;20046;-70
2021/09/07 00:54:14;;;;;;;11.17;6.37;;;16.60;97.00;;;;;;4990487;28;20035;-70
2021/09/07 00:56:41;;;;;;;11.73;6.22;;;16.70;96.50;;;;;;4992111;28;20030;-70
2021/09/07 00:59:07;;;;;;;13.05;7.00;;;16.70;96.80;;;;;;4990684;28;20030;-70
2021/09/07 01:01:33;;;;;;;10.93;6.05;;;16.70;97.00;;;;;;4991605;28;20034;-70
2021/09/07 01:03:59;;;;;;;13.50;7.03;;;16.70;96.90;;;;;;4991703;28;20027;-70
2021/09/07 01:06:26;;;;;;;14.38;7.18;;;16.60;97.10;;;;;;4991567;28;20445;-70
2021/09/07 01:08:53;;;;;;;11.73;6.75;;;16.50;97.30;;;;;;4991029;28;20062;-69
2021/09/07 01:11:18;;;;;;;15.57;6.82;;;16.50;97.40;;;;;;4991685;28;20046;-70
2021/09/07 01:13:45;;;;;;;13.50;6.50;;;16.60;97.40;;;;;;4991724;28;20030;-69
2021/09/07 01:16:11;;;;;;;11.40;6.60;;;16.60;97.40;;;;;;4991393;28;20038;-70
2021/09/07 01:18:37;;;;;;;12.35;7.05;;;16.50;97.50;;;;;;4991473;28;20022;-70
2021/09/07 01:21:09;;;;;;;15.38;7.65;;;16.50;97.60;;;;;;4991565;28;20050;-70
2021/09/07 01:23:35;;;;;;;12.35;6.72;;;16.50;97.60;;;;;;4991519;28;20043;-70
2021/09/07 01:26:01;;;;;;;12.15;6.93;;;16.50;97.60;;;;;;4991526;28;20049;-70
2021/09/07 01:28:27;;;;;;;14.88;7.32;;;16.50;97.60;;;;;;4991504;28;20026;-70
2021/09/07 01:30:52;;;;;;;14.00;7.40;;;16.50;97.60;;;;;;4994932;28;20053;-70
2021/09/07 01:33:18;;;;;;;15.57;7.22;;;16.60;97.50;;;;;;4995236;28;20092;-70
2021/09/07 01:35:44;;;;;;;16.05;7.68;;;16.60;97.60;;;;;;4995516;28;20026;-70
2021/09/07 01:38:09;;;;;;;17.98;8.10;;;16.50;97.70;;;;;;4995209;28;20030;-70
2021/09/07 01:40:35;;;;;;;14.15;7.55;;;16.50;97.80;;;;;;4995163;28;20593;-70
2021/09/07 01:43:00;;;;;;;13.00;6.60;;;16.50;97.90;;;;;;4995239;28;20052;-70
2021/09/07 01:45:26;;;;;;;15.48;7.63;;;16.40;97.90;;;;;;4994953;28;20133;-70
2021/09/07 01:47:53;;;;;;;12.73;7.10;;;16.40;98.00;;;;;;4995350;28;20031;-70
2021/09/07 01:50:19;;;;;;;14.50;7.75;;;16.40;98.00;;;;;;4995141;28;20038;-70
2021/09/07 01:52:44;;;;;;;11.73;7.30;;;16.40;97.90;;;;;;4995018;28;20086;-70
2021/09/07 01:55:10;;;;;;;11.40;6.65;;;16.50;97.90;;;;;;4994839;28;20061;-70
2021/09/07 01:57:35;;;;;;;12.45;6.90;;;16.50;97.90;;;;;;4994864;28;20053;-70
2021/09/07 02:00:02;;;;;;;11.88;7.28;;;16.40;97.90;;;;;;4995282;28;20034;-70
2021/09/07 02:02:28;;;;;;;14.32;7.50;;;16.50;97.90;;;;;;4994841;28;20490;-70
2021/09/07 02:04:53;;;;;;;18.08;8.07;;;16.40;98.00;;;;;;4994783;28;20044;-70
2021/09/07 02:07:19;;;;;;;16.13;7.63;;;16.40;98.00;;;;;;4994514;28;20350;-70
2021/09/07 02:09:46;;;;;;;16.17;7.32;;;16.50;97.80;;;;;;5010099;28;20042;-70
2021/09/07 02:12:11;;;;;;;18.73;7.70;;;16.50;97.80;;;;;;4994443;28;20093;-70
2021/09/07 02:14:37;;;;;;;14.10;7.50;;;16.50;97.90;;;;;;4995061;28;20133;-70
2021/09/07 02:17:03;;;;;;;11.77;6.90;;;16.50;97.90;;;;;;4994471;28;20464;-70
2021/09/07 02:19:29;;;;;;;13.10;7.35;;;16.50;97.90;;;;;;4994212;28;20045;-70
2021/09/07 02:21:55;;;;;;;11.68;6.55;;;16.50;98.00;;;;;;4994282;28;20034;-69
2021/09/07 02:24:20;;;;;;;12.73;6.88;;;16.50;97.90;;;;;;4994487;28;20034;-70
2021/09/07 02:26:46;;;;;;;13.30;7.20;;;16.50;98.00;;;;;;4995159;28;20029;-70
2021/09/07 02:29:11;;;;;;;12.95;6.88;;;16.50;98.10;;;;;;4994469;28;20039;-74
2021/09/07 02:31:37;;;;;;;14.95;6.75;;;16.50;98.00;;;;;;4994284;28;20066;-70
2021/09/07 02:34:03;;;;;;;12.07;6.93;;;16.50;98.00;;;;;;4994375;28;22013;-70
2021/09/07 02:36:28;;;;;;;10.80;6.72;;;16.50;98.20;;;;;;4994326;28;20102;-68
2021/09/07 02:38:55;;;;;;;14.40;6.68;;;16.50;98.30;;;;;;4994547;28;20452;-69
2021/09/07 02:41:21;;;;;;;13.65;7.70;;;16.50;98.30;;;;;;4993276;28;20030;-70
2021/09/07 02:43:47;;;;;;;15.15;7.30;;;16.50;98.30;;;;;;4994008;28;20027;-70
2021/09/07 02:46:13;;;;;;;10.07;6.57;;;16.50;98.40;;;;;;4994074;28;20511;-70
2021/09/07 02:48:39;;;;;;;12.75;6.32;;;16.40;98.50;;;;;;4993885;28;20046;-70
2021/09/07 02:51:05;;;;;;;12.60;6.85;;;16.40;98.50;;;;;;4994218;28;20018;-71
2021/09/07 02:53:30;;;;;;;13.65;6.88;;;16.40;98.40;;;;;;5009109;28;20541;-70
2021/09/07 02:55:56;;;;;;;19.77;11.10;;;16.40;98.40;;;;;;4993800;28;20563;-71
2021/09/07 02:58:21;;;;;;;12.75;7.25;;;16.40;98.50;;;;;;4993689;28;20045;-70
2021/09/07 03:00:47;;;;;;;13.07;7.55;;;16.40;98.50;;;;;;4993834;28;20026;-70
2021/09/07 03:03:12;;;;;;;14.95;7.05;;;16.40;98.50;;;;;;4993664;28;20344;-70
2021/09/07 03:05:41;;;;;;;16.60;6.85;;;16.40;98.60;;;;;;4994115;28;20105;-70
2021/09/07 03:08:06;;;;;;;16.08;6.93;;;16.40;98.60;;;;;;4993633;28;20117;-70
2021/09/07 03:10:33;;;;;;;14.23;7.30;;;16.40;98.60;;;;;;4993444;28;20157;-70
2021/09/07 03:12:59;;;;;;;10.88;6.43;;;16.40;98.60;;;;;;4993439;28;20042;-70
2021/09/07 03:15:25;;;;;;;12.27;7.10;;;16.40;98.50;;;;;;4993274;28;20030;-69
2021/09/07 03:17:51;;;;;;;12.90;7.50;;;16.30;98.60;;;;;;4994069;28;20026;-70
2021/09/07 03:20:17;;;;;;;11.40;7.18;;;16.30;98.60;;;;;;4993286;28;20035;-70
2021/09/07 03:22:42;;;;;;;15.18;7.03;;;16.30;98.50;;;;;;4993230;28;20499;-70
2021/09/07 03:25:08;;;;;;;12.75;8.07;;;16.20;98.60;;;;;;4993152;28;20132;-70
2021/09/07 03:27:34;;;;;;;14.77;8.00;;;16.20;98.70;;;;;;4993197;28;20037;-71
2021/09/07 03:29:59;;;;;;;12.18;6.82;;;16.30;98.50;;;;;;4993413;28;20029;-70
2021/09/07 03:32:25;;;;;;;13.48;7.05;;;16.30;98.50;;;;;;4993294;28;20058;-71
2021/09/07 03:34:51;;;;;;;14.48;7.95;;;16.20;98.60;;;;;;4992933;28;20054;-71
2021/09/07 03:37:17;;;;;;;13.52;7.18;;;16.20;98.70;;;;;;4993248;28;20118;-71
2021/09/07 03:39:43;;;;;;;12.68;6.82;;;16.20;98.70;;;;;;4993347;28;20026;-70
2021/09/07 03:42:09;;;;;;;15.77;6.82;;;16.10;98.70;;;;;;4993570;28;20033;-70
2021/09/07 03:44:34;;;;;;;17.85;8.30;;;16.10;98.80;;;;;;4991913;28;20038;-70
2021/09/07 03:47:00;;;;;;;13.23;7.10;;;16.10;98.80;;;;;;4992979;28;20034;-69
2021/09/07 03:49:25;;;;;;;16.75;7.10;;;16.10;98.90;;;;;;4992701;28;20031;-70
2021/09/07 03:51:51;;;;;;;11.90;7.32;;;16.10;98.80;;;;;;4992655;28;20022;-70
2021/09/07 03:54:17;;;;;;;14.68;8.10;;;16.10;98.80;;;;;;4991879;28;20356;-70
2021/09/07 03:56:42;;;;;;;12.57;7.57;;;16.10;98.80;;;;;;4993212;28;20378;-70
2021/09/07 03:59:08;;;;;;;14.30;8.02;;;16.10;98.80;;;;;;4992690;28;20392;-70
2021/09/07 04:01:33;;;;;;;15.30;7.75;;;16.10;98.90;;;;;;4992610;28;20030;-70
2021/09/07 04:03:59;;;;;;;15.30;7.90;;;16.10;98.90;;;;;;4992448;28;20089;-70
2021/09/07 04:06:24;;;;;;;13.82;7.50;;;16.10;98.90;;;;;;5007895;28;20338;-71
2021/09/07 04:08:50;;;;;;;18.65;7.13;;;16.10;98.70;;;;;;4993103;28;20045;-69
2021/09/07 04:11:16;;;;;;;10.70;6.28;;;16.20;98.80;;;;;;5007726;28;20046;-69
2021/09/07 04:13:41;;;;;;;12.65;6.30;;;16.10;98.90;;;;;;4992263;28;20034;-70
2021/09/07 04:16:07;;;;;;;13.13;7.70;;;16.10;98.90;;;;;;4992394;28;20384;-70
2021/09/07 04:18:32;;;;;;;13.75;7.47;;;16.00;98.90;;;;;;4992430;28;20412;-70
2021/09/07 04:20:58;;;;;;;16.35;7.63;;;16.10;99.00;;;;;;4992307;28;20455;-70
2021/09/07 04:23:24;;;;;;;12.88;6.32;;;16.10;99.00;;;;;;4992251;28;20030;-70
2021/09/07 04:25:49;;;;;;;16.08;6.97;;;16.10;98.90;;;;;;4991943;28;20120;-70
2021/09/07 04:28:15;;;;;;;14.13;7.47;;;16.10;98.90;;;;;;4992261;28;20034;-69
2021/09/07 04:30:41;;;;;;;12.70;7.15;;;16.10;98.90;;;;;;4992043;28;20039;-70
2021/09/07 04:33:07;;;;;;;13.57;6.65;;;16.10;99.00;;;;;;4992429;28;20027;-70
2021/09/07 04:35:32;;;;;;;11.75;6.95;;;16.10;98.80;;;;;;4992021;28;20045;-70
2021/09/07 04:38:00;;;;;;;16.35;7.07;;;16.20;98.60;;;;;;4992272;28;20042;-69
2021/09/07 04:40:26;;;;;;;15.30;7.70;;;16.20;98.70;;;;;;4991795;28;20452;-71
2021/09/07 04:42:52;;;;;;;13.02;7.45;;;16.20;98.90;;;;;;5007325;28;20278;-70
2021/09/07 04:45:17;;;;;;;19.70;7.47;;;16.20;98.90;;;;;;4991939;28;20056;-70
2021/09/07 04:47:43;;;;;;;15.68;6.80;;;16.10;99.00;;;;;;4992130;28;20027;-71
2021/09/07 04:50:09;;;;;;;12.77;7.63;;;16.20;98.70;;;;;;5006950;28;20101;-70
2021/09/07 04:52:34;;;;;;;14.65;6.97;;;16.20;98.90;;;;;;4991707;28;20042;-70
2021/09/07 04:55:00;;;;;;;18.55;7.28;;;16.20;98.80;;;;;;4990744;28;20040;-70
2021/09/07 04:57:25;;;;;;;14.75;7.15;;;16.20;98.70;;;;;;5007357;28;20496;-71
2021/09/07 04:59:51;;;;;;;12.23;7.03;;;16.20;99.00;;;;;;4991913;28;20030;-69
2021/09/07 05:02:16;;;;;;;15.65;6.78;;;16.20;98.90;;;;;;4991662;28;20033;-70
2021/09/07 05:04:42;;;;;;;11.38;6.90;;;16.20;98.90;;;;;;5006306;28;20061;-70
2021/09/07 05:07:08;;;;;;;14.50;7.82;;;16.10;99.00;;;;;;4991606;28;20035;-70
2021/09/07 05:09:33;;;;;;;13.88;7.65;;;16.10;99.00;;;;;;4991725;28;20465;-70
2021/09/07 05:11:59;;;;;;;18.63;7.20;;;16.10;99.00;;;;;;4992026;28;20027;-71
2021/09/07 05:14:24;;;;;;;16.00;7.43;;;16.10;99.10;;;;;;4991611;28;20030;-70
2021/09/07 05:16:50;;;;;;;13.70;7.18;;;16.10;99.00;;;;;;4991713;28;20114;-69
2021/09/07 05:19:16;;;;;;;14.98;7.35;;;16.10;98.90;;;;;;4991390;28;20041;-69
2021/09/07 05:21:43;;;;;;;13.32;7.90;;;16.20;99.10;;;;;;4991236;28;20475;-70
2021/09/07 05:24:08;;;;;;;12.90;7.32;;;16.20;99.10;;;;;;4990747;28;20023;-70
2021/09/07 05:26:34;;;;;;;14.60;7.10;;;16.20;99.20;;;;;;4990335;28;20027;-70
2021/09/07 05:29:00;;;;;;;14.40;8.27;;;16.20;98.90;;;;;;4990320;28;20049;-69
2021/09/07 05:31:25;;;;;;;15.25;8.40;;;16.30;99.20;;;;;;4991351;28;20031;-68
2021/09/07 05:33:51;;;;;;;14.95;7.75;;;16.30;98.90;;;;;;4991330;28;20037;-68
2021/09/07 05:36:17;;;;;;;18.35;9.02;;;16.40;98.90;;;;;;4991330;28;20030;-68
2021/09/07 05:38:42;;;;;;;18.58;8.30;;;16.40;98.80;;;;;;4991732;28;20030;-70
2021/09/07 05:41:08;;;;;;;19.13;9.50;;;16.50;98.70;;;;;;4990209;28;20034;-69
2021/09/07 05:43:34;;;;;;;22.65;9.25;;;16.50;98.80;;;;;;4990543;28;20030;-70
2021/09/07 05:45:59;;;;;;;20.88;9.68;;;16.60;98.70;;;;;;4991102;28;20125;-69
2021/09/07 05:48:25;;;;;;;19.88;8.73;;;16.60;98.70;;;;;;4990922;28;20322;-69
2021/09/07 05:50:52;;;;;;;19.30;9.98;;;16.60;98.80;;;;;;4991335;28;20200;-69
2021/09/07 05:53:18;;;;;;;23.20;10.32;;;16.70;98.70;;;;;;4989969;28;20492;-69
2021/09/07 05:55:43;;;;;;;23.05;11.45;;;16.70;98.70;;;;;;4991074;28;20038;-69
2021/09/07 05:58:09;;;;;;;24.77;12.60;;;16.70;98.50;;;;;;4990987;28;20038;-68
2021/09/07 06:00:35;;;;;;;21.58;10.45;;;16.70;98.50;;;;;;4990910;28;20030;-68
2021/09/07 06:03:04;;;;;;;21.05;11.07;;;16.80;98.60;;;;;;4991348;28;20042;-69
2021/09/07 06:05:30;;;;;;;20.25;11.45;;;16.80;98.60;;;;;;4991082;28;20124;-67
2021/09/07 06:07:55;;;;;;;22.13;11.85;;;16.90;98.60;;;;;;4990941;28;20472;-68
2021/09/07 06:10:21;;;;;;;24.23;12.40;;;16.90;98.70;;;;;;4990944;28;20034;-69
2021/09/07 06:12:46;;;;;;;24.88;12.48;;;17.00;98.60;;;;;;4990911;28;20376;-67
2021/09/07 06:15:12;;;;;;;22.85;12.48;;;17.10;98.50;;;;;;4990624;28;20157;-68
2021/09/07 06:17:38;;;;;;;23.48;13.35;;;17.10;98.40;;;;;;4994211;28;20029;-68
2021/09/07 06:20:04;;;;;;;31.85;15.70;;;17.10;98.40;;;;;;4994226;28;20038;-68
2021/09/07 06:22:30;;;;;;;28.83;15.32;;;17.20;98.30;;;;;;4993999;28;20038;-68
2021/09/07 06:24:55;;;;;;;30.48;15.50;;;17.20;98.20;;;;;;4993321;28;20022;-69
2021/09/07 06:27:21;;;;;;;36.30;17.38;;;17.20;98.10;;;;;;4994060;28;20041;-68
2021/09/07 06:29:47;;;;;;;33.88;18.17;;;17.30;98.00;;;;;;4994661;28;20101;-68
2021/09/07 06:32:13;;;;;;;33.55;17.33;;;17.30;98.00;;;;;;4994101;28;20391;-68
2021/09/07 06:34:42;;;;;;;40.10;19.55;;;17.30;98.00;;;;;;4994141;28;20058;-68
2021/09/07 06:37:08;;;;;;;38.90;19.50;;;17.30;98.10;;;;;;4994170;28;20038;-68
2021/09/07 06:39:33;;;;;;;37.28;18.27;;;17.30;98.00;;;;;;4994048;28;20042;-68
2021/09/07 06:41:59;;;;;;;43.67;19.45;;;17.30;98.10;;;;;;4994440;28;20037;-68
2021/09/07 06:44:24;;;;;;;38.20;18.48;;;17.30;98.10;;;;;;4994006;28;20030;-69
2021/09/07 06:46:50;;;;;;;33.72;17.92;;;17.40;98.20;;;;;;4992850;28;20482;-68
2021/09/07 06:49:16;;;;;;;38.47;19.40;;;17.50;98.10;;;;;;4993580;28;20045;-68
2021/09/07 06:51:41;;;;;;;37.67;19.48;;;17.50;98.10;;;;;;4993874;28;20483;-68
2021/09/07 06:54:07;;;;;;;35.35;18.98;;;17.50;98.10;;;;;;4994154;28;20078;-70
2021/09/07 06:56:33;;;;;;;41.45;21.10;;;17.60;98.00;;;;;;4993513;28;20030;-68
2021/09/07 06:58:58;;;;;;;39.47;19.25;;;17.60;98.10;;;;;;4993418;28;20069;-69
2021/09/07 07:01:24;;;;;;;36.70;19.33;;;17.60;98.00;;;;;;4993600;28;20452;-68
2021/09/07 07:03:49;;;;;;;40.28;20.38;;;17.60;98.10;;;;;;4993716;28;20030;-68
2021/09/07 07:06:15;;;;;;;42.25;20.40;;;17.60;98.00;;;;;;4993590;28;20052;-68
2021/09/07 07:08:41;;;;;;;45.13;22.40;;;17.70;98.00;;;;;;4993962;28;20522;-68
2021/09/07 07:11:06;;;;;;;46.63;20.77;;;17.80;97.80;;;;;;4992625;28;20532;-68
2021/09/07 07:13:32;;;;;;;42.97;20.42;;;17.80;97.90;;;;;;4992309;28;20113;-69
2021/09/07 07:15:57;;;;;;;42.38;21.23;;;17.90;97.90;;;;;;4993419;28;20058;-70
2021/09/07 07:18:23;;;;;;;43.08;21.60;;;17.90;97.90;;;;;;4993115;28;20027;-67
2021/09/07 07:20:49;;;;;;;44.08;21.35;;;18.00;97.80;;;;;;4992271;28;20096;-68
2021/09/07 07:23:14;;;;;;;46.65;23.50;;;18.00;97.70;;;;;;4993249;28;20038;-69
2021/09/07 07:25:40;;;;;;;48.72;23.05;;;18.10;97.60;;;;;;4992963;28;20121;-68
2021/09/07 07:28:06;;;;;;;48.03;22.45;;;18.10;97.60;;;;;;4991953;28;20035;-69
2021/09/07 07:30:32;;;;;;;47.20;23.85;;;18.20;97.60;;;;;;4993285;28;20030;-68
2021/09/07 07:32:58;;;;;;;43.33;21.27;;;18.20;97.40;;;;;;4992402;28;20026;-69
2021/09/07 07:35:24;;;;;;;43.83;21.77;;;18.30;97.40;;;;;;4991581;28;20038;-68
2021/09/07 07:37:49;;;;;;;44.00;22.45;;;18.40;97.50;;;;;;4993124;28;20217;-69
2021/09/07 07:40:15;;;;;;;40.85;21.80;;;18.40;97.40;;;;;;4992191;28;20027;-69
2021/09/07 07:42:41;;;;;;;42.28;20.90;;;18.50;97.20;;;;;;4991819;28;20057;-68
2021/09/07 07:45:07;;;;;;;41.95;20.50;;;18.60;97.30;;;;;;4993641;28;20108;-70
2021/09/07 07:47:33;;;;;;;41.60;21.23;;;18.70;97.20;;;;;;4991467;28;20373;-70
2021/09/07 07:49:58;;;;;;;46.60;21.90;;;18.70;97.00;;;;;;4992734;28;20034;-70
2021/09/07 07:52:24;;;;;;;45.17;21.67;;;18.80;96.90;;;;;;4992599;28;20428;-70
2021/09/07 07:54:50;;;;;;;41.08;20.52;;;18.90;96.90;;;;;;4992641;28;20030;-70
2021/09/07 07:57:17;;;;;;;42.83;20.92;;;19.00;96.80;;;;;;4992450;28;20052;-70
2021/09/07 07:59:44;;;;;;;44.00;20.83;;;19.10;96.80;;;;;;4992068;28;20027;-70
2021/09/07 08:02:10;;;;;;;37.92;19.88;;;19.10;96.50;;;;;;4991694;28;20109;-70
2021/09/07 08:04:35;;;;;;;37.60;19.90;;;19.10;96.60;;;;;;4991392;28;20109;-70
2021/09/07 08:07:01;;;;;;;38.33;19.80;;;19.10;96.10;;;;;;4992260;28;20034;-70
2021/09/07 08:09:28;;;;;;;37.60;19.83;;;19.10;96.10;;;;;;4992207;28;20088;-71
2021/09/07 08:11:54;;;;;;;36.90;18.88;;;19.20;96.10;;;;;;4992575;28;20046;-70
2021/09/07 08:14:20;;;;;;;43.22;19.20;;;19.30;96.10;;;;;;4992305;28;20066;-71
2021/09/07 08:16:45;;;;;;;34.95;17.58;;;19.40;96.00;;;;;;4991108;28;20031;-71
2021/09/07 08:19:11;;;;;;;33.20;16.45;;;19.60;95.60;;;;;;4992126;28;20038;-71
2021/09/07 08:21:37;;;;;;;29.88;15.30;;;19.70;95.70;;;;;;4990875;28;20068;-70
2021/09/07 08:24:03;;;;;;;30.40;15.30;;;20.10;95.40;;;;;;4992308;28;20081;-70
2021/09/07 08:26:29;;;;;;;21.83;11.38;;;21.10;95.00;;;;;;4992419;28;20023;-69
2021/09/07 08:28:54;;;;;;;24.05;10.88;;;22.10;92.40;;;;;;4991874;28;20480;-68
2021/09/07 08:31:20;;;;;;;22.92;10.85;;;23.10;91.90;;;;;;4992092;28;20030;-69
2021/09/07 08:33:46;;;;;;;26.60;11.48;;;23.80;89.90;;;;;;4991958;28;20026;-70
2021/09/07 08:36:12;;;;;;;24.75;10.80;;;24.40;86.90;;;;;;4992103;28;20029;-71
2021/09/07 08:38:37;;;;;;;23.08;9.85;;;25.30;85.40;;;;;;4991938;28;20492;-70
2021/09/07 08:41:03;;;;;;;19.38;8.75;;;25.70;82.80;;;;;;4991467;28;20023;-70
2021/09/07 08:43:28;;;;;;;19.50;9.98;;;26.40;77.80;;;;;;4990661;28;20089;-71
2021/09/07 08:45:56;;;;;;;20.98;10.90;;;27.10;74.50;;;;;;4991650;28;20457;-71
2021/09/07 08:48:24;;;;;;;20.13;11.00;;;27.60;74.90;;;;;;4991816;28;20030;-70
2021/09/07 08:50:51;;;;;;;18.83;10.48;;;27.80;73.80;;;;;;4992193;28;20177;-71
2021/09/07 08:53:16;;;;;;;17.02;9.05;;;28.60;70.90;;;;;;4991979;28;20113;-71
2021/09/07 08:55:42;;;;;;;19.17;8.50;;;28.90;67.10;;;;;;4991888;28;20460;-71
2021/09/07 08:58:08;;;;;;;15.38;9.38;;;29.30;64.80;;;;;;4991949;28;20137;-72
2021/09/07 09:00:34;;;;;;;17.17;8.77;;;29.70;64.20;;;;;;4990524;28;20539;-71
2021/09/07 09:03:11;;;;;;;16.20;8.43;;;30.30;62.40;;;;;;4991736;28;20022;-71
2021/09/07 09:05:40;;;;;;;19.83;8.10;;;30.60;61.80;;;;;;4991653;28;20310;-70
2021/09/07 09:08:17;;;;;;;15.25;7.75;;;31.30;60.70;;;;;;4991804;28;20022;-71
2021/09/07 09:10:44;;;;;;;15.13;8.33;;;31.60;58.10;;;;;;4991724;28;20027;-71
2021/09/07 09:13:18;;;;;;;20.60;9.68;;;31.60;56.70;;;;;;4990410;28;20482;-70
2021/09/07 09:16:03;;;;;;;15.50;7.70;;;31.60;56.10;;;;;;4991528;28;20038;-71
2021/09/07 09:18:40;;;;;;;15.40;7.68;;;31.70;53.50;;;;;;4991782;28;20091;-70
2021/09/07 09:21:27;;;;;;;16.13;7.28;;;32.00;53.30;;;;;;4991801;28;20038;-70
2021/09/07 09:24:22;;;;;;;13.23;6.65;;;32.10;53.40;;;;;;5007176;28;20181;-70
2021/09/07 09:27:02;;;;;;;12.90;7.50;;;32.00;51.40;;;;;;4992013;28;20078;-71
2021/09/07 09:29:34;;;;;;;15.05;7.28;;;31.00;52.60;;;;;;4991632;28;20527;-70
2021/09/07 09:32:13;;;;;;;11.88;6.95;;;31.40;53.00;;;;;;4990425;28;20034;-71
2021/09/07 09:34:40;;;;;;;12.75;6.93;;;31.60;52.40;;;;;;4991259;28;20041;-71
2021/09/07 09:37:08;;;;;;;12.10;5.63;;;32.00;52.40;;;;;;4991324;28;20540;-71
2021/09/07 09:39:51;;;;;;;10.65;4.93;;;32.10;52.10;;;;;;4991360;28;20027;-72
2021/09/07 09:42:28;;;;;;;11.68;5.13;;;32.20;49.30;;;;;;4991227;28;20102;-70
2021/09/07 09:45:07;;;;;;;11.60;6.05;;;32.40;48.50;;;;;;4991696;28;20094;-71
2021/09/07 09:47:41;;;;;;;8.77;4.60;;;32.50;50.60;;;;;;4991062;28;20056;-71
2021/09/07 09:50:09;;;;;;;8.27;4.93;;;32.70;49.00;;;;;;4991783;28;20044;-70
2021/09/07 09:52:38;;;;;;;9.93;5.32;;;32.70;46.70;;;;;;4994868;28;20062;-70
2021/09/07 09:55:06;;;;;;;9.50;5.93;;;32.70;47.70;;;;;;4993654;28;20447;-71
2021/09/07 09:57:33;;;;;;;21.30;14.77;;;32.70;45.90;;;;;;4994900;28;20045;-71
2021/09/07 10:00:02;;;;;;;10.20;5.82;;;32.60;45.20;;;;;;4995104;28;20073;-69
2021/09/07 10:02:29;;;;;;;9.57;5.57;;;32.70;47.30;;;;;;4994735;28;20034;-70
2021/09/07 10:04:55;;;;;;;9.60;5.55;;;32.90;46.80;;;;;;4994665;28;20037;-70
2021/09/07 10:07:21;;;;;;;8.00;5.22;;;33.30;46.00;;;;;;4994659;28;20548;-70
2021/09/07 10:09:48;;;;;;;11.25;5.93;;;33.70;45.20;;;;;;4994463;28;20121;-71
2021/09/07 10:12:22;;;;;;;11.35;5.88;;;33.20;44.10;;;;;;4994692;28;20437;-71
2021/09/07 10:14:55;;;;;;;9.10;5.80;;;33.40;43.80;;;;;;4995184;28;20054;-71
2021/09/07 10:17:36;;;;;;;10.52;6.30;;;33.80;43.30;;;;;;4994590;28;20042;-71
2021/09/07 10:20:34;;;;;;;7.93;5.03;;;33.90;43.10;;;;;;4994260;28;20042;-71
2021/09/07 10:25:48;;;;;;;10.57;5.47;;;33.60;41.10;;;;;;4994638;28;20092;-71
2021/09/07 10:28:31;;;;;;;8.02;5.07;;;33.50;42.40;;;;;;4994354;28;20030;-72
2021/09/07 10:31:07;;;;;;;8.75;6.03;;;33.70;42.20;;;;;;4994398;28;20030;-71
2021/09/07 10:33:44;;;;;;;12.30;7.03;;;33.90;40.90;;;;;;4994233;28;20031;-71
2021/09/07 10:36:11;;;;;;;;;;;32.50;41.10;;;;;;4994822;28;20023;-69
2021/09/07 10:38:42;;;;;;;15.10;7.25;;;33.10;42.90;;;;;;4994799;28;20437;-70
2021/09/07 10:41:09;;;;;;;13.55;6.38;;;34.30;41.40;;;;;;4994086;28;20038;-71
2021/09/07 10:43:52;;;;;;;9.43;5.50;;;35.10;41.00;;;;;;4993973;28;20026;-72
2021/09/07 10:46:38;;;;;;;11.15;7.07;;;35.40;40.30;;;;;;4994014;28;20038;-72
2021/09/07 10:49:44;;;;;;;14.10;9.45;;;34.70;40.40;;;;;;4994034;28;20076;-71
2021/09/07 10:52:13;;;;;;;11.85;7.15;;;34.90;40.60;;;;;;4985877;28;20053;-71
2021/09/07 10:54:44;;;;;;;9.88;5.82;;;35.00;39.80;;;;;;4993931;28;20057;-71
2021/09/07 10:57:36;;;;;;;12.32;6.70;;;34.90;39.80;;;;;;4994239;28;20037;-70
2021/09/07 11:00:14;;;;;;;10.60;6.95;;;35.20;39.40;;;;;;4993942;28;20054;-70
2021/09/07 11:02:41;;;;;;;14.10;7.13;;;34.40;39.70;;;;;;4993320;28;20480;-70
2021/09/07 11:05:07;;;;;;;;;;;34.10;40.80;;;;;;4994310;28;20034;-70
2021/09/07 11:07:41;;;;;;;9.68;5.75;;;33.80;41.30;;;;;;4993674;28;20338;-69
2021/09/07 11:10:29;;;;;;;11.85;6.05;;;33.50;41.60;;;;;;4993914;28;20078;-71
2021/09/07 11:13:07;;;;;;;9.10;5.53;;;33.50;42.20;;;;;;4993527;28;20027;-69
2021/09/07 11:15:40;;;;;;;8.40;5.72;;;33.60;41.60;;;;;;4992378;28;20038;-71
2021/09/07 11:18:20;;;;;;;9.48;5.18;;;33.10;41.20;;;;;;4993824;28;20515;-71
2021/09/07 11:20:48;;;;;;;12.85;5.18;;;32.20;42.50;;;;;;4993071;28;20100;-70
2021/09/07 11:23:17;;;;;;;10.10;5.38;;;32.50;42.50;;;;;;4993379;28;20622;-70
2021/09/07 11:25:57;;;;;;;13.02;7.30;;;31.30;44.00;;;;;;4993268;28;20117;-69
2021/09/07 11:28:22;;;;;;;11.07;6.00;;;31.50;43.90;;;;;;4993306;28;20121;-70
2021/09/07 11:30:52;;;;;;;8.23;5.07;;;31.40;44.50;;;;;;4993239;28;20126;-69
2021/09/07 11:33:22;;;;;;;12.40;5.00;;;30.60;45.10;;;;;;4993140;28;20065;-70
2021/09/07 11:35:54;;;;;;;9.93;4.22;;;30.20;45.90;;;;;;4993076;28;20027;-70
2021/09/07 11:38:21;;;;;;;7.05;4.65;;;29.90;46.90;;;;;;4992935;28;20081;-71
2021/09/07 11:40:55;;;;;;;8.45;4.50;;;29.90;47.40;;;;;;4992941;28;20042;-71
2021/09/07 11:43:34;;;;;;;8.80;4.97;;;29.70;47.20;;;;;;4991835;28;20141;-69
2021/09/07 11:46:19;;;;;;;8.35;4.13;;;29.30;47.20;;;;;;4992960;28;20027;-71
2021/09/07 11:48:50;;;;;;;7.63;4.60;;;29.10;48.30;;;;;;4992870;28;20027;-70
2021/09/07 11:51:18;;;;;;;6.00;4.20;;;28.90;48.40;;;;;;4992736;28;20048;-71
2021/09/07 11:53:45;;;;;;;9.10;4.55;;;28.20;48.50;;;;;;4992002;28;20019;-70
2021/09/07 11:56:38;;;;;;;7.25;4.03;;;27.80;49.50;;;;;;4992582;28;20089;-69
2021/09/07 11:59:10;;;;;;;10.15;4.88;;;28.00;49.40;;;;;;4990231;28;20030;-70
2021/09/07 12:01:41;;;;;;;26.92;16.73;;;28.20;49.50;;;;;;4992779;28;20030;-71
2021/09/07 12:04:07;;;;;;;15.73;5.40;;;28.20;49.90;;;;;;4991457;28;20042;-71
2021/09/07 12:06:42;;;;;;;8.10;4.25;;;28.10;50.30;;;;;;4991571;28;20039;-70
2021/09/07 12:09:30;;;;;;;9.52;4.20;;;28.00;50.80;;;;;;4993108;28;20468;-70
2021/09/07 12:12:12;;;;;;;7.45;4.28;;;27.90;51.40;;;;;;4992192;28;20038;-69
2021/09/07 12:14:45;;;;;;;9.63;4.45;;;27.80;50.90;;;;;;4991485;28;20045;-70
2021/09/07 12:17:16;;;;;;;9.73;4.85;;;27.80;51.10;;;;;;4991157;28;20034;-69
2021/09/07 12:19:52;;;;;;;8.30;4.40;;;27.70;51.60;;;;;;4992327;28;20031;-70
2021/09/07 12:22:23;;;;;;;10.57;4.70;;;27.60;52.30;;;;;;4991901;28;20539;-71
2021/09/07 12:25:00;;;;;;;6.93;4.20;;;27.50;52.50;;;;;;4992258;28;20070;-71
2021/09/07 12:27:28;;;;;;;8.45;4.82;;;27.40;52.40;;;;;;4992041;28;20440;-70
2021/09/07 12:30:22;;;;;;;8.50;4.85;;;27.50;52.70;;;;;;4992605;28;20018;-70
2021/09/07 12:32:52;;;;;;;8.95;4.55;;;27.30;52.40;;;;;;4959880;28;20042;-71
2021/09/07 12:35:38;;;;;;;9.13;4.40;;;26.90;53.10;;;;;;4972738;28;20042;-70
2021/09/07 12:38:09;;;;;;;8.75;4.05;;;27.00;53.70;;;;;;4987767;28;20305;-70
2021/09/07 12:40:37;;;;;;;8.75;4.50;;;27.00;54.10;;;;;;4992034;28;20091;-70
2021/09/07 12:43:11;;;;;;;10.38;4.53;;;27.20;53.40;;;;;;4991959;28;20423;-71